Time;durP1;ratioP1;P1;durP2;ratioP2;P2;SDS_P1;SDS_P2;PMS_P1;PMS_P2;Temp;Humidity;BMP_temperature;BMP_pressure;BME280_temperature;BME280_humidity;BME280_pressure;Samples;Min_cycle;Max_cycle;Signal;HPM_P1;HPM_P2
2022/06/16 00:00:43;;;;;;;5.25;2.20;;;;;;;;;;5073949;28;20048;-72
2022/06/16 00:03:09;;;;;;;4.65;1.80;;;23.40;74.40;;;;;;5074310;28;20052;-63
2022/06/16 00:05:36;;;;;;;5.47;2.03;;;23.30;76.30;;;;;;5065477;28;20040;-66
2022/06/16 00:08:03;;;;;;;3.80;1.80;;;23.30;79.60;;;;;;5074408;28;20123;-63
2022/06/16 00:10:28;;;;;;;4.88;1.90;;;23.40;76.50;;;;;;5074508;28;20048;-63
2022/06/16 00:12:54;;;;;;;4.10;1.67;;;23.40;79.50;;;;;;5072724;28;20036;-62
2022/06/16 00:15:22;;;;;;;5.00;1.95;;;23.50;79.30;;;;;;5073094;28;20040;-62
2022/06/16 00:17:48;;;;;;;3.28;1.60;;;23.30;79.10;;;;;;5073525;28;20084;-62
2022/06/16 00:20:14;;;;;;;4.75;1.90;;;23.30;79.30;;;;;;5074980;28;20134;-62
2022/06/16 00:22:40;;;;;;;3.97;1.50;;;23.20;79.20;;;;;;5073316;28;20060;-62
2022/06/16 00:25:07;;;;;;;4.80;1.88;;;23.10;76.10;;;;;;5075354;28;20045;-62
2022/06/16 00:27:33;;;;;;;4.50;1.80;;;23.30;79.20;;;;;;5067356;28;20059;-62
2022/06/16 00:29:59;;;;;;;5.60;2.17;;;23.10;79.00;;;;;;5068539;28;20044;-62
2022/06/16 00:32:24;;;;;;;4.53;2.03;;;23.30;76.30;;;;;;5075431;28;20040;-61
2022/06/16 00:34:50;;;;;;;3.85;1.60;;;23.40;79.30;;;;;;5073593;28;20548;-62
2022/06/16 00:37:16;;;;;;;3.92;1.70;;;23.40;79.30;;;;;;5072460;28;20107;-62
2022/06/16 00:39:41;;;;;;;4.03;1.83;;;23.40;76.40;;;;;;5074322;28;20044;-67
2022/06/16 00:42:09;;;;;;;4.72;2.10;;;23.10;79.20;;;;;;5070797;28;20045;-66
2022/06/16 00:44:39;;;;;;;5.35;1.98;;;23.30;76.70;;;;;;5049047;28;20076;-67
2022/06/16 00:47:04;;;;;;;5.40;1.58;;;23.20;77.70;;;;;;5065907;28;20091;-65
2022/06/16 00:49:30;;;;;;;4.65;1.80;;;23.30;79.10;;;;;;5057660;28;20077;-65
2022/06/16 00:52:02;;;;;;;3.25;1.60;;;23.30;76.30;;;;;;5069103;28;20071;-63
2022/06/16 00:54:34;;;;;;;3.60;1.80;;;23.30;79.00;;;;;;5084860;28;20471;-64
2022/06/16 00:57:08;;;;;;;5.23;2.07;;;23.10;74.80;;;;;;5074471;28;20059;-64
2022/06/16 00:59:33;;;;;;;3.33;1.60;;;23.20;79.10;;;;;;5071659;28;20302;-65
2022/06/16 01:01:59;;;;;;;3.38;1.80;;;23.20;79.00;;;;;;5080332;28;20052;-65
2022/06/16 01:07:10;;;;;;;3.97;1.80;;;23.10;75.00;;;;;;5075424;28;20056;-70
2022/06/16 01:09:36;;;;;;;5.35;1.60;;;23.20;79.10;;;;;;5072422;28;20091;-62
2022/06/16 01:15:26;;;;;;;4.72;1.65;;;23.10;75.60;;;;;;5063174;28;20049;-63
2022/06/16 01:18:16;;;;;;;3.25;1.58;;;23.20;75.20;;;;;;5064557;28;20052;-67
2022/06/16 01:21:03;;;;;;;2.97;1.42;;;23.20;79.30;;;;;;5073827;28;20044;-65
2022/06/16 01:23:50;;;;;;;6.45;1.70;;;23.00;79.00;;;;;;5074139;28;20045;-65
2022/06/16 01:26:29;;;;;;;5.03;1.80;;;23.20;79.50;;;;;;5070559;28;20045;-65
2022/06/16 01:29:20;;;;;;;3.55;1.70;;;23.40;75.40;;;;;;5057320;28;20058;-65
2022/06/16 01:32:23;;;;;;;3.42;1.50;;;23.20;79.30;;;;;;5065984;28;20032;-70
2022/06/16 01:34:52;;;;;;;;;;;23.10;75.50;;;;;;5054092;28;20159;-65
2022/06/16 01:37:25;;;;;;;3.25;1.65;;;23.10;79.10;;;;;;5065457;28;19920;-64
2022/06/16 01:40:07;;;;;;;4.25;2.17;;;23.10;79.20;;;;;;5072666;28;20084;-69
2022/06/16 01:42:38;;;;;;;3.70;1.53;;;23.10;79.10;;;;;;5060437;28;20052;-67
2022/06/16 01:45:30;;;;;;;4.43;1.85;;;23.10;79.30;;;;;;5075080;28;20354;-69
2022/06/16 01:47:56;;;;;;;4.15;1.60;;;23.00;79.20;;;;;;5069223;28;20048;-68
2022/06/16 01:50:59;;;;;;;4.00;1.80;;;23.20;79.30;;;;;;5055840;28;20535;-70
2022/06/16 01:53:50;;;;;;;4.30;1.67;;;23.00;79.00;;;;;;5005300;28;20042;-66
2022/06/16 01:56:45;;;;;;;3.40;1.63;;;23.00;79.00;;;;;;5010204;28;20095;-65
2022/06/16 01:59:35;;;;;;;4.22;1.70;;;23.00;79.20;;;;;;4996371;28;20488;-64
2022/06/16 02:02:04;;;;;;;3.88;1.42;;;23.20;79.30;;;;;;5009567;28;20050;-63
2022/06/16 02:04:42;;;;;;;3.67;1.83;;;23.30;79.10;;;;;;4996379;28;20152;-61
2022/06/16 02:07:33;;;;;;;3.78;1.60;;;23.20;78.00;;;;;;4993663;28;20403;-62
2022/06/16 02:09:59;;;;;;;3.92;1.40;;;22.90;74.90;;;;;;4984611;28;20054;-62
2022/06/16 02:15:17;;;;;;;3.33;1.50;;;22.90;76.30;;;;;;5004449;28;20064;-64
2022/06/16 02:17:43;;;;;;;3.75;1.60;;;;;;;;;;4996576;28;20053;-62
2022/06/16 02:20:09;;;;;;;4.40;1.77;;;23.20;74.40;;;;;;5027474;28;20521;-62
2022/06/16 02:22:35;;;;;;;3.83;1.63;;;22.90;79.00;;;;;;5014931;28;20144;-62
2022/06/16 02:25:01;;;;;;;3.13;1.52;;;23.10;79.40;;;;;;4993315;28;20136;-62
2022/06/16 02:27:26;;;;;;;4.10;1.60;;;22.80;79.10;;;;;;5042523;28;20063;-62
2022/06/16 02:29:52;;;;;;;4.13;1.50;;;22.90;76.30;;;;;;5061124;28;20048;-62
2022/06/16 02:32:45;;;;;;;2.60;1.58;;;23.20;79.30;;;;;;5073202;28;20040;-62
2022/06/16 02:35:55;;;;;;;3.97;1.80;;;22.90;79.30;;;;;;5049605;28;20053;-62
2022/06/16 02:38:46;;;;;;;4.82;1.63;;;22.90;79.70;;;;;;5027406;28;20041;-61
2022/06/16 02:41:35;;;;;;;3.10;1.67;;;22.90;77.00;;;;;;5019141;28;20088;-61
2022/06/16 02:44:21;;;;;;;4.82;1.73;;;23.00;79.20;;;;;;5018501;28;20077;-61
2022/06/16 02:46:49;;;;;;;3.65;1.50;;;22.90;79.30;;;;;;5022769;28;20044;-62
2022/06/16 02:49:18;;;;;;;4.60;2.03;;;22.80;79.60;;;;;;5050334;28;20048;-62
2022/06/16 02:52:03;;;;;;;4.25;2.05;;;23.00;79.40;;;;;;5031583;28;20048;-62
2022/06/16 02:54:38;;;;;;;5.68;2.08;;;22.90;79.30;;;;;;5031067;28;20064;-62
2022/06/16 02:57:29;;;;;;;3.63;1.60;;;22.90;79.40;;;;;;5029643;28;20040;-61
2022/06/16 02:59:57;;;;;;;4.15;1.50;;;22.90;79.40;;;;;;5038040;28;20052;-62
2022/06/16 03:02:24;;;;;;;4.60;1.58;;;23.00;79.40;;;;;;5007316;28;20048;-62
2022/06/16 03:04:52;;;;;;;3.65;1.60;;;23.10;76.20;;;;;;5015146;28;20049;-62
2022/06/16 03:07:17;;;;;;;4.05;1.63;;;23.00;79.30;;;;;;5025397;28;20053;-69
2022/06/16 03:09:43;;;;;;;3.75;1.60;;;23.00;79.50;;;;;;5069130;28;20406;-66
2022/06/16 03:12:10;;;;;;;2.42;1.20;;;22.90;76.40;;;;;;5070523;28;20040;-62
2022/06/16 03:14:36;;;;;;;3.85;1.60;;;23.00;79.60;;;;;;5072758;28;20055;-62
2022/06/16 03:17:02;;;;;;;4.10;1.58;;;23.10;76.60;;;;;;5061336;28;20053;-62
2022/06/16 03:19:28;;;;;;;4.18;2.00;;;23.00;77.10;;;;;;5072585;28;20049;-62
2022/06/16 03:21:54;;;;;;;4.72;1.90;;;23.00;79.70;;;;;;5072359;28;20503;-62
2022/06/16 03:24:21;;;;;;;5.05;1.70;;;22.90;79.30;;;;;;5068395;28;20490;-62
2022/06/16 03:26:46;;;;;;;4.95;1.65;;;23.10;79.40;;;;;;5069920;28;20072;-62
2022/06/16 03:29:12;;;;;;;3.40;1.60;;;22.80;79.50;;;;;;5071356;28;20083;-62
2022/06/16 03:31:38;;;;;;;3.25;1.63;;;22.90;79.50;;;;;;5072342;28;20054;-62
2022/06/16 03:34:04;;;;;;;2.95;1.45;;;22.80;79.50;;;;;;5063298;28;20067;-62
2022/06/16 03:36:29;;;;;;;2.88;1.50;;;23.10;79.60;;;;;;5067031;28;20037;-62
2022/06/16 03:38:55;;;;;;;3.05;1.48;;;23.10;79.50;;;;;;5066138;28;20060;-64
2022/06/16 03:41:21;;;;;;;3.35;1.30;;;22.80;76.40;;;;;;5073387;28;20390;-66
2022/06/16 03:43:46;;;;;;;3.78;1.60;;;22.90;76.70;;;;;;5069671;28;20072;-63
2022/06/16 03:46:14;;;;;;;3.38;1.67;;;;;;;;;;5070915;28;20116;-66
2022/06/16 03:48:40;;;;;;;3.63;2.17;;;23.00;74.80;;;;;;5071579;28;20040;-62
2022/06/16 03:51:07;;;;;;;3.72;1.60;;;23.10;79.60;;;;;;5048340;28;20120;-61
2022/06/16 03:53:33;;;;;;;4.00;1.60;;;23.10;79.70;;;;;;5054661;28;20045;-62
2022/06/16 03:55:58;;;;;;;2.80;1.40;;;23.10;79.50;;;;;;5067263;28;20413;-62
2022/06/16 03:58:24;;;;;;;4.18;1.90;;;23.20;79.50;;;;;;5072288;28;20071;-62
2022/06/16 04:00:50;;;;;;;3.63;1.30;;;23.10;76.60;;;;;;5069788;28;20044;-63
2022/06/16 04:06:01;;;;;;;3.70;1.73;;;23.20;76.20;;;;;;5070625;28;20051;-67
2022/06/16 04:08:27;;;;;;;3.05;1.55;;;23.10;79.40;;;;;;5056327;28;20045;-65
2022/06/16 04:10:53;;;;;;;2.90;1.50;;;23.00;79.40;;;;;;5069174;28;20097;-61
2022/06/16 04:13:18;;;;;;;4.05;1.70;;;23.00;79.40;;;;;;5070421;28;20056;-63
2022/06/16 04:15:44;;;;;;;3.78;1.73;;;23.20;76.50;;;;;;5069942;28;20502;-62
2022/06/16 04:18:10;;;;;;;2.65;1.58;;;23.10;76.50;;;;;;5072852;28;20067;-62
2022/06/16 04:20:36;;;;;;;3.20;1.67;;;23.40;79.50;;;;;;5073549;28;20041;-61
2022/06/16 04:23:01;;;;;;;3.25;1.50;;;23.10;79.20;;;;;;5072962;28;20045;-62
2022/06/16 04:25:30;;;;;;;6.00;1.95;;;23.20;76.00;;;;;;5045056;28;20053;-63
2022/06/16 04:28:00;;;;;;;3.75;1.70;;;23.30;79.30;;;;;;5063414;28;20068;-62
2022/06/16 04:30:26;;;;;;;4.30;1.80;;;23.10;79.10;;;;;;5074986;28;20048;-62
2022/06/16 04:32:52;;;;;;;3.67;1.60;;;23.20;79.40;;;;;;5073451;28;20051;-62
2022/06/16 04:35:17;;;;;;;5.20;1.70;;;23.30;79.20;;;;;;5073587;28;20390;-64
2022/06/16 04:37:43;;;;;;;3.95;1.33;;;23.50;79.40;;;;;;5068364;28;20413;-62
2022/06/16 04:40:10;;;;;;;2.80;1.35;;;23.30;76.40;;;;;;5075422;28;20470;-64
2022/06/16 04:42:35;;;;;;;3.50;1.27;;;23.10;79.60;;;;;;5065132;28;20127;-63
2022/06/16 04:45:01;;;;;;;3.70;1.58;;;23.30;79.10;;;;;;5076267;28;20083;-62
2022/06/16 04:47:27;;;;;;;4.80;1.67;;;23.30;79.10;;;;;;5071963;28;20029;-61
2022/06/16 04:49:52;;;;;;;4.85;1.70;;;23.20;76.20;;;;;;5071750;28;20494;-62
2022/06/16 04:52:18;;;;;;;4.03;1.50;;;23.30;79.00;;;;;;5073611;28;20079;-61
2022/06/16 04:54:45;;;;;;;3.63;1.67;;;23.40;79.20;;;;;;5073239;28;20044;-61
2022/06/16 04:57:11;;;;;;;3.75;1.52;;;23.60;76.60;;;;;;5075043;28;20045;-62
2022/06/16 04:59:37;;;;;;;5.30;2.17;;;23.20;76.10;;;;;;5072388;28;20047;-62
2022/06/16 05:02:03;;;;;;;4.15;1.83;;;23.20;79.20;;;;;;5074879;28;20418;-62
2022/06/16 05:04:28;;;;;;;3.72;1.70;;;23.40;76.20;;;;;;5065768;28;20067;-62
2022/06/16 05:06:55;;;;;;;3.50;1.75;;;23.40;76.10;;;;;;5072449;28;20049;-70
2022/06/16 05:09:22;;;;;;;5.35;1.80;;;23.70;79.20;;;;;;5072455;28;20052;-66
2022/06/16 05:11:47;;;;;;;5.05;1.52;;;23.50;79.10;;;;;;5074960;28;20045;-65
2022/06/16 05:14:13;;;;;;;4.43;1.55;;;23.50;76.10;;;;;;5073484;28;20391;-64
2022/06/16 05:16:39;;;;;;;2.92;1.40;;;23.50;78.80;;;;;;5057469;28;20550;-62
2022/06/16 05:19:05;;;;;;;3.63;1.60;;;23.90;78.80;;;;;;5069198;28;20106;-62
2022/06/16 05:21:31;;;;;;;4.35;1.52;;;24.10;78.60;;;;;;5074671;28;20485;-62
2022/06/16 05:23:57;;;;;;;3.65;1.52;;;24.40;78.30;;;;;;5074745;28;20043;-64
2022/06/16 05:26:22;;;;;;;2.85;1.42;;;24.20;75.30;;;;;;5073906;28;20517;-62
2022/06/16 05:28:48;;;;;;;2.95;1.25;;;24.30;75.50;;;;;;5067569;28;20505;-62
2022/06/16 05:31:14;;;;;;;3.58;1.40;;;24.20;74.50;;;;;;5066054;28;20045;-63
2022/06/16 05:33:40;;;;;;;3.35;1.50;;;24.80;74.80;;;;;;5069275;28;20090;-62
2022/06/16 05:36:08;;;;;;;2.35;1.30;;;24.90;74.40;;;;;;5063888;28;20072;-62
2022/06/16 05:38:34;;;;;;;3.72;1.65;;;25.10;76.70;;;;;;5082691;28;20414;-62
2022/06/16 05:41:06;;;;;;;3.42;1.50;;;25.30;76.80;;;;;;5070610;28;20093;-66
2022/06/16 05:43:33;;;;;;;2.20;1.27;;;25.20;72.50;;;;;;5072382;28;20391;-65
2022/06/16 05:45:59;;;;;;;3.58;1.50;;;25.30;73.70;;;;;;5055395;28;20083;-66
2022/06/16 05:48:25;;;;;;;3.63;1.50;;;25.60;75.90;;;;;;5053537;28;20236;-65
2022/06/16 05:50:51;;;;;;;3.83;1.65;;;25.50;73.00;;;;;;5060598;28;20398;-70
2022/06/16 05:53:17;;;;;;;3.63;1.40;;;25.60;73.10;;;;;;5072083;28;20444;-63
2022/06/16 05:55:42;;;;;;;3.45;1.35;;;25.90;72.90;;;;;;5074944;28;20044;-62
2022/06/16 05:58:08;;;;;;;3.17;1.40;;;25.80;73.40;;;;;;5070617;28;20040;-71
2022/06/16 06:00:34;;;;;;;2.28;1.15;;;26.10;73.00;;;;;;5069558;28;20089;-72
2022/06/16 06:03:00;;;;;;;6.85;1.40;;;26.00;72.80;;;;;;5071738;28;20044;-73
2022/06/16 06:05:26;;;;;;;3.15;1.35;;;25.90;72.80;;;;;;5072814;28;20093;-70
2022/06/16 06:18:58;;;;;;;4.50;1.88;;;26.10;71.60;;;;;;5029497;28;20100;-72
2022/06/16 06:24:09;;;;;;;2.92;1.30;;;26.20;72.20;;;;;;5015834;28;20049;-66
2022/06/16 06:26:35;;;;;;;3.25;1.40;;;26.00;72.50;;;;;;4994733;28;20088;-72
2022/06/16 06:29:00;;;;;;;2.67;1.30;;;26.30;72.50;;;;;;4985277;28;20113;-71
2022/06/16 06:31:26;;;;;;;2.67;1.20;;;26.40;72.30;;;;;;5009141;28;20042;-71
2022/06/16 06:33:52;;;;;;;2.55;1.20;;;26.40;72.30;;;;;;5025271;28;20053;-61
2022/06/16 06:36:18;;;;;;;2.42;1.30;;;26.30;72.00;;;;;;5009431;28;20054;-72
2022/06/16 06:38:43;;;;;;;2.92;1.40;;;26.40;72.20;;;;;;5030622;28;20048;-72
2022/06/16 06:41:09;;;;;;;3.45;1.20;;;26.60;72.00;;;;;;5006309;28;20555;-67
2022/06/16 06:43:35;;;;;;;2.53;1.30;;;26.60;72.20;;;;;;5011298;28;20089;-66
2022/06/16 06:46:00;;;;;;;3.47;1.40;;;26.50;71.70;;;;;;5005786;28;20112;-67
2022/06/16 06:48:26;;;;;;;2.30;1.17;;;26.50;72.00;;;;;;5011601;28;20046;-71
2022/06/16 06:50:52;;;;;;;3.35;1.42;;;26.50;71.60;;;;;;5008908;28;20087;-66
2022/06/16 06:53:18;;;;;;;2.75;1.30;;;26.60;71.90;;;;;;5015790;28;20099;-66
2022/06/16 06:55:45;;;;;;;3.00;1.30;;;26.70;75.00;;;;;;5031404;28;20526;-63
2022/06/16 06:58:18;;;;;;;4.72;1.80;;;26.60;72.00;;;;;;5033000;28;20041;-64
2022/06/16 07:00:43;;;;;;;3.30;1.30;;;26.90;70.60;;;;;;5034736;28;20102;-67
2022/06/16 07:03:10;;;;;;;3.03;1.35;;;26.90;71.90;;;;;;5050404;28;20044;-71
2022/06/16 07:05:37;;;;;;;4.22;1.48;;;26.90;71.90;;;;;;5050177;28;20106;-71
2022/06/16 07:08:03;;;;;;;5.35;1.65;;;27.00;72.00;;;;;;5052393;28;20037;-70
2022/06/16 07:10:28;;;;;;;5.25;1.42;;;26.70;71.20;;;;;;5051263;28;20044;-70
2022/06/16 07:12:54;;;;;;;5.30;1.40;;;26.80;71.30;;;;;;5049005;28;20040;-66
2022/06/16 07:15:20;;;;;;;4.80;1.80;;;26.60;71.20;;;;;;5046368;28;20410;-68
2022/06/16 07:17:46;;;;;;;4.95;1.75;;;26.90;71.10;;;;;;5051930;28;20486;-69
2022/06/16 07:20:15;;;;;;;4.13;1.65;;;26.70;70.90;;;;;;5049922;28;20052;-70
2022/06/16 07:22:42;;;;;;;4.68;1.80;;;26.70;70.80;;;;;;5049972;28;20049;-71
2022/06/16 07:25:08;;;;;;;7.35;1.55;;;26.50;70.70;;;;;;5050154;28;20053;-70
2022/06/16 07:27:34;;;;;;;6.07;1.58;;;26.60;70.40;;;;;;5053559;28;20064;-69
2022/06/16 07:29:59;;;;;;;7.75;2.15;;;26.90;70.60;;;;;;5048882;28;20482;-72
2022/06/16 07:32:25;;;;;;;6.93;1.63;;;26.70;70.90;;;;;;5041044;28;20387;-69
2022/06/16 07:34:51;;;;;;;3.95;1.50;;;26.80;70.40;;;;;;5042468;28;20045;-61
2022/06/16 07:37:17;;;;;;;5.85;1.70;;;26.70;70.00;;;;;;5053708;28;20119;-62
2022/06/16 07:39:43;;;;;;;3.42;1.45;;;26.80;70.20;;;;;;5053655;28;20052;-63
2022/06/16 07:42:09;;;;;;;3.28;1.60;;;26.80;69.80;;;;;;5050864;28;20498;-64
2022/06/16 07:44:34;;;;;;;4.97;1.70;;;26.90;70.00;;;;;;5044732;28;20743;-65
2022/06/16 07:47:00;;;;;;;4.43;1.42;;;27.00;69.90;;;;;;5052095;28;20094;-63
2022/06/16 07:49:29;;;;;;;9.27;1.80;;;26.80;69.90;;;;;;5036979;28;20056;-63
2022/06/16 07:51:55;;;;;;;9.30;2.30;;;26.80;69.80;;;;;;5046881;28;20052;-62
2022/06/16 07:54:23;;;;;;;6.60;1.90;;;27.10;70.10;;;;;;5054553;28;20041;-63
2022/06/16 07:56:49;;;;;;;5.65;1.80;;;26.90;69.90;;;;;;5045720;28;20082;-65
2022/06/16 07:59:15;;;;;;;6.70;1.88;;;27.10;70.00;;;;;;5055311;28;20091;-64
2022/06/16 08:01:40;;;;;;;6.10;1.70;;;27.00;69.70;;;;;;5055021;28;20040;-62
2022/06/16 08:04:06;;;;;;;5.38;1.77;;;26.90;69.80;;;;;;5052598;28;20049;-62
2022/06/16 08:06:33;;;;;;;6.95;1.70;;;27.20;69.70;;;;;;5043751;28;20036;-62
2022/06/16 08:08:59;;;;;;;5.55;1.73;;;27.20;70.30;;;;;;5056884;28;20048;-63
2022/06/16 08:14:09;;;;;;;5.68;1.63;;;27.10;68.70;;;;;;5046668;28;20486;-73
2022/06/16 08:16:36;;;;;;;4.57;1.92;;;27.50;69.90;;;;;;5055165;28;20039;-71
2022/06/16 08:19:02;;;;;;;4.80;1.90;;;27.20;70.00;;;;;;5072589;28;20080;-63
2022/06/16 08:21:28;;;;;;;4.90;1.95;;;27.40;70.30;;;;;;5073143;28;20049;-62
2022/06/16 08:23:54;;;;;;;8.90;2.40;;;27.10;69.80;;;;;;5059112;28;20059;-66
2022/06/16 08:26:20;;;;;;;8.02;2.00;;;27.50;69.80;;;;;;5073376;28;20045;-66
2022/06/16 08:28:46;;;;;;;10.48;2.97;;;27.30;70.30;;;;;;5075088;28;20121;-66
2022/06/16 08:31:12;;;;;;;6.72;2.00;;;27.20;69.90;;;;;;5055098;28;20487;-62
2022/06/16 08:33:38;;;;;;;7.35;2.53;;;27.60;70.40;;;;;;5041005;28;20135;-62
2022/06/16 08:36:03;;;;;;;8.27;2.53;;;27.30;70.00;;;;;;5063157;28;20132;-62
2022/06/16 08:38:29;;;;;;;8.85;3.10;;;27.70;70.40;;;;;;5071246;28;20056;-66
2022/06/16 08:41:13;;;;;;;6.53;2.20;;;27.60;70.30;;;;;;5063072;28;20433;-73
2022/06/16 08:44:03;;;;;;;8.02;2.70;;;27.50;70.70;;;;;;5049552;28;20060;-71
2022/06/16 08:46:58;;;;;;;7.32;2.83;;;27.20;69.00;;;;;;5059998;28;20175;-63
2022/06/16 08:50:06;;;;;;;7.13;2.60;;;27.40;69.20;;;;;;5038815;28;20056;-63
2022/06/16 08:52:38;;;;;;;9.90;2.80;;;27.40;70.80;;;;;;4994895;28;21927;-62
2022/06/16 08:55:24;;;;;;;8.23;3.05;;;27.40;69.30;;;;;;4998340;28;20054;-62
2022/06/16 08:58:13;;;;;;;11.60;3.10;;;27.40;69.40;;;;;;4979821;28;20088;-71
2022/06/16 09:00:45;;;;;;;7.15;2.80;;;27.50;69.60;;;;;;4996468;28;20046;-62
2022/06/16 09:03:39;;;;;;;7.87;2.53;;;27.60;71.10;;;;;;4994765;28;20108;-63
2022/06/16 09:06:28;;;;;;;11.50;2.53;;;27.50;69.20;;;;;;4986848;28;20506;-62
2022/06/16 09:09:14;;;;;;;11.82;2.50;;;27.30;68.60;;;;;;4994118;28;20047;-62
2022/06/16 09:11:56;;;;;;;6.75;1.90;;;27.40;68.30;;;;;;4993873;28;20057;-62
2022/06/16 09:15:10;;;;;;;7.80;2.15;;;27.30;68.00;;;;;;4983545;28;20060;-63
2022/06/16 09:17:42;;;;;;;6.20;2.13;;;27.20;67.90;;;;;;4976426;28;20097;-61
2022/06/16 09:20:55;;;;;;;6.10;2.30;;;27.30;67.80;;;;;;4947106;28;20042;-61
2022/06/16 09:23:29;;;;;;;6.18;2.15;;;27.20;67.70;;;;;;4898272;29;20067;-62
2022/06/16 09:26:28;;;;;;;5.63;2.13;;;27.10;67.90;;;;;;4904420;29;20484;-62
2022/06/16 09:29:07;;;;;;;4.45;1.92;;;27.20;67.90;;;;;;4860906;29;20054;-62
2022/06/16 09:31:38;;;;;;;6.40;1.92;;;27.00;68.10;;;;;;4861089;29;20057;-62
2022/06/16 09:34:16;;;;;;;5.43;2.03;;;27.30;69.90;;;;;;4876208;29;20469;-62
2022/06/16 09:36:45;;;;;;;7.47;2.25;;;27.30;69.90;;;;;;4868143;29;20393;-62
2022/06/16 09:39:24;;;;;;;7.65;2.50;;;27.20;70.00;;;;;;4862303;29;20131;-62
2022/06/16 09:44:55;;;;;;;6.65;2.13;;;27.10;68.50;;;;;;4867308;29;20045;-62
2022/06/16 09:47:25;;;;;;;6.38;2.10;;;27.20;70.30;;;;;;4862081;29;20049;-62
2022/06/16 09:49:58;;;;;;;6.25;2.13;;;27.20;70.20;;;;;;4863164;29;20057;-62
2022/06/16 09:52:52;;;;;;;5.55;2.20;;;27.20;70.40;;;;;;4863725;29;20568;-62
2022/06/16 09:55:48;;;;;;;9.38;2.30;;;27.30;70.70;;;;;;4870420;29;20064;-61
2022/06/16 09:58:16;;;;;;;6.78;2.50;;;27.30;69.00;;;;;;4818181;29;20045;-62
2022/06/16 10:00:42;;;;;;;5.32;2.15;;;26.90;70.10;;;;;;4844933;29;20054;-62
2022/06/16 10:03:20;;;;;;;6.00;2.40;;;27.10;70.30;;;;;;4860343;29;20077;-61
2022/06/16 10:05:57;;;;;;;5.35;2.00;;;27.10;70.90;;;;;;4936993;28;20181;-62
2022/06/16 10:08:40;;;;;;;5.22;2.13;;;27.00;70.90;;;;;;4947620;28;20118;-63
2022/06/16 10:11:28;;;;;;;5.05;2.20;;;27.20;69.60;;;;;;4954271;29;20506;-62
2022/06/16 10:14:00;;;;;;;4.50;1.98;;;27.10;69.70;;;;;;4954279;29;20208;-62
2022/06/16 10:16:47;;;;;;;5.60;2.10;;;27.10;71.10;;;;;;4938172;29;20069;-62
2022/06/16 10:19:13;;;;;;;8.65;2.25;;;27.10;69.50;;;;;;4959585;28;20057;-62
2022/06/16 10:21:39;;;;;;;6.30;2.63;;;26.90;70.60;;;;;;4950774;28;20060;-62
2022/06/16 10:24:05;;;;;;;4.90;2.20;;;27.20;70.90;;;;;;4972770;28;20039;-62
2022/06/16 10:26:31;;;;;;;5.45;2.05;;;27.10;70.60;;;;;;4957260;28;20046;-69
2022/06/16 10:29:05;;;;;;;6.53;2.55;;;27.00;71.10;;;;;;4969490;28;20086;-62
2022/06/16 10:31:36;;;;;;;6.80;2.15;;;26.70;71.20;;;;;;4957488;28;20043;-62
2022/06/16 10:34:01;;;;;;;4.55;1.80;;;26.90;69.80;;;;;;4962956;28;20380;-62
2022/06/16 10:36:27;;;;;;;5.22;2.10;;;26.90;70.90;;;;;;5053809;28;20120;-63
2022/06/16 10:39:15;;;;;;;4.93;2.20;;;26.80;70.80;;;;;;5063639;28;20051;-62
2022/06/16 10:42:00;;;;;;;4.82;2.17;;;26.70;70.10;;;;;;5072143;28;20052;-62
2022/06/16 10:44:27;;;;;;;4.57;1.90;;;26.60;69.60;;;;;;5073987;28;20399;-62
2022/06/16 10:47:04;;;;;;;6.45;2.08;;;26.90;71.20;;;;;;5072522;28;20491;-62
2022/06/16 10:49:34;;;;;;;6.07;2.05;;;26.70;71.20;;;;;;5056324;28;20048;-63
2022/06/16 10:52:05;;;;;;;5.18;2.08;;;26.70;69.70;;;;;;5072365;28;20037;-61
2022/06/16 10:54:35;;;;;;;3.38;1.85;;;26.90;71.50;;;;;;5073312;28;20041;-62
2022/06/16 10:57:18;;;;;;;6.18;2.45;;;26.70;71.30;;;;;;5053873;28;20124;-62
2022/06/16 10:59:48;;;;;;;;;;;26.70;70.00;;;;;;5056872;28;20115;-62
2022/06/16 11:02:28;;;;;;;4.80;2.10;;;26.70;70.40;;;;;;5066429;28;19920;-62
2022/06/16 11:05:02;;;;;;;4.95;2.10;;;27.00;71.90;;;;;;5073676;28;20090;-62
2022/06/16 11:07:34;;;;;;;5.75;2.10;;;26.90;71.40;;;;;;5073644;28;20052;-62
2022/06/16 11:10:05;;;;;;;5.97;2.63;;;26.80;71.50;;;;;;5071722;28;20086;-62
2022/06/16 11:12:31;;;;;;;8.55;2.78;;;26.80;71.50;;;;;;5063297;28;20441;-62
2022/06/16 11:15:03;;;;;;;4.50;2.08;;;26.90;71.30;;;;;;5052435;28;20037;-62
2022/06/16 11:17:35;;;;;;;3.78;2.25;;;26.50;71.60;;;;;;5035597;28;20125;-62
2022/06/16 11:20:15;;;;;;;5.38;2.10;;;27.00;71.80;;;;;;5051611;28;20048;-62
2022/06/16 11:22:43;;;;;;;4.90;2.03;;;26.90;70.20;;;;;;5051757;28;20514;-61
2022/06/16 11:25:18;;;;;;;6.93;2.33;;;26.70;71.60;;;;;;5053148;28;20048;-62
2022/06/16 11:28:12;;;;;;;7.85;2.50;;;27.00;70.60;;;;;;5052789;28;20045;-62
2022/06/16 11:30:47;;;;;;;6.32;2.30;;;26.80;70.70;;;;;;5036065;28;20049;-62
2022/06/16 11:36:44;;;;;;;7.40;2.30;;;26.70;70.60;;;;;;5055047;28;20182;-62
2022/06/16 11:39:16;;;;;;;5.60;2.10;;;26.80;70.70;;;;;;5073374;28;20094;-62
2022/06/16 11:41:43;;;;;;;4.07;2.10;;;26.70;70.40;;;;;;5055231;28;20041;-62
2022/06/16 11:44:12;;;;;;;4.28;2.17;;;26.70;72.50;;;;;;5032117;28;20482;-62
2022/06/16 11:47:07;;;;;;;6.05;2.20;;;26.30;69.90;;;;;;5062425;28;20044;-62
2022/06/16 11:49:39;;;;;;;6.30;2.88;;;26.70;70.50;;;;;;5053406;28;20048;-62
2022/06/16 11:52:35;;;;;;;4.28;2.10;;;26.60;72.00;;;;;;5034943;28;20128;-62
2022/06/16 11:55:19;;;;;;;3.75;2.22;;;26.90;71.00;;;;;;5054119;28;20041;-62
2022/06/16 11:58:19;;;;;;;4.82;2.30;;;26.90;72.10;;;;;;5052904;28;20045;-64
2022/06/16 12:00:53;;;;;;;5.07;2.65;;;26.70;71.00;;;;;;5053131;28;20049;-62
2022/06/16 12:03:34;;;;;;;3.90;2.10;;;26.60;72.20;;;;;;5058566;28;20044;-62
2022/06/16 12:06:18;;;;;;;5.93;2.65;;;26.60;70.40;;;;;;5067174;28;20045;-62
2022/06/16 12:09:21;;;;;;;8.50;3.40;;;26.60;70.70;;;;;;5070729;28;20487;-62
2022/06/16 12:11:48;;;;;;;5.43;2.97;;;26.50;69.70;;;;;;5072833;28;20555;-62
2022/06/16 12:14:18;;;;;;;7.47;3.25;;;26.50;70.40;;;;;;5071468;28;20094;-62
2022/06/16 12:17:05;;;;;;;6.57;2.95;;;26.70;70.80;;;;;;5063232;28;20113;-62
2022/06/16 12:20:03;;;;;;;7.82;3.10;;;26.70;69.10;;;;;;5072478;28;20059;-62
2022/06/16 12:22:38;;;;;;;6.50;2.85;;;26.40;68.80;;;;;;5035304;28;20037;-62
2022/06/16 12:25:28;;;;;;;5.78;3.05;;;26.50;70.30;;;;;;5035374;28;20041;-62
2022/06/16 12:28:42;;;;;;;10.50;3.35;;;26.20;68.30;;;;;;5063405;28;20083;-63
2022/06/16 12:31:42;;;;;;;5.75;2.72;;;26.50;68.60;;;;;;4991704;28;20161;-62
2022/06/16 12:34:29;;;;;;;6.10;2.60;;;26.40;68.90;;;;;;4975091;28;20075;-61
2022/06/16 12:36:55;;;;;;;5.45;2.90;;;26.20;68.90;;;;;;4990812;28;20046;-63
2022/06/16 12:39:36;;;;;;;5.35;2.70;;;26.40;70.40;;;;;;4974719;28;20082;-61
2022/06/16 12:42:05;;;;;;;12.20;3.00;;;26.30;70.70;;;;;;5008927;28;20060;-68
2022/06/16 12:44:47;;;;;;;10.55;4.63;;;26.20;70.60;;;;;;4981946;28;20049;-63
2022/06/16 12:47:22;;;;;;;8.47;3.93;;;26.40;69.50;;;;;;4983191;28;20053;-63
2022/06/16 12:49:59;;;;;;;27.98;12.27;;;26.30;69.50;;;;;;4963266;28;20508;-63
2022/06/16 12:52:29;;;;;;;9.60;3.88;;;26.40;69.70;;;;;;4996926;28;20057;-62
2022/06/16 12:55:14;;;;;;;22.63;6.85;;;26.60;71.50;;;;;;5001740;28;20062;-63
2022/06/16 12:57:42;;;;;;;17.70;6.32;;;26.30;69.60;;;;;;4978259;28;20042;-62
2022/06/16 13:00:19;;;;;;;14.90;5.15;;;26.20;70.70;;;;;;4992643;28;20543;-62
2022/06/16 13:02:50;;;;;;;11.98;5.22;;;26.40;69.50;;;;;;4970878;28;20038;-67
2022/06/16 13:05:16;;;;;;;10.85;4.97;;;26.30;71.00;;;;;;4977950;28;20412;-67
2022/06/16 13:07:43;;;;;;;15.43;4.70;;;26.40;70.60;;;;;;5034290;28;20053;-61
2022/06/16 13:10:11;;;;;;;8.20;4.50;;;26.30;71.00;;;;;;5057636;28;20049;-62
2022/06/16 13:12:39;;;;;;;10.75;4.60;;;26.20;70.00;;;;;;5066523;28;20045;-62
2022/06/16 13:15:44;;;;;;;9.57;4.10;;;26.40;71.00;;;;;;5072518;28;21113;-69
2022/06/16 13:18:21;;;;;;;11.60;3.75;;;26.20;69.70;;;;;;5050174;28;20563;-62
2022/06/16 13:20:51;;;;;;;8.40;3.63;;;26.10;71.50;;;;;;5032170;28;20048;-62
2022/06/16 13:23:19;;;;;;;10.15;3.90;;;26.30;71.40;;;;;;5052214;28;20057;-62
2022/06/16 13:25:46;;;;;;;7.47;4.03;;;26.20;71.30;;;;;;4997747;28;20120;-67
2022/06/16 13:28:29;;;;;;;10.07;3.50;;;26.40;71.60;;;;;;5019697;28;20057;-61
2022/06/16 13:31:09;;;;;;;7.75;3.25;;;26.40;70.20;;;;;;5029653;28;20042;-62
2022/06/16 13:33:45;;;;;;;6.90;3.30;;;26.50;71.90;;;;;;5047170;28;20136;-62
2022/06/16 13:36:37;;;;;;;7.25;3.83;;;26.30;70.30;;;;;;5023601;28;20052;-61
2022/06/16 13:39:04;;;;;;;8.15;3.60;;;26.20;70.10;;;;;;5033031;28;20059;-61
2022/06/16 13:42:02;;;;;;;5.90;2.80;;;26.20;71.50;;;;;;5023430;28;20473;-61
2022/06/16 13:44:29;;;;;;;6.43;3.13;;;26.20;70.50;;;;;;5035888;28;20045;-62
2022/06/16 13:46:57;;;;;;;6.63;3.10;;;26.40;71.70;;;;;;5026731;28;20049;-67
2022/06/16 13:49:27;;;;;;;8.07;3.70;;;26.20;70.20;;;;;;5052011;28;20041;-63